createdAt,value
2018-09-26T00:00:34.694Z,10.70
2018-09-26T00:03:05.711Z,10.70
2018-09-26T00:05:33.853Z,10.70
2018-09-26T00:08:01.863Z,10.80
2018-09-26T00:10:29.803Z,10.80
2018-09-26T00:12:57.817Z,10.80
2018-09-26T00:15:25.841Z,10.80
2018-09-26T00:17:53.815Z,10.70
2018-09-26T00:20:21.780Z,10.70
2018-09-26T00:22:49.715Z,10.70
2018-09-26T00:25:17.799Z,10.70
2018-09-26T00:27:45.765Z,10.70
2018-09-26T00:30:13.754Z,10.70
2018-09-26T00:32:41.754Z,10.70
2018-09-26T00:35:09.798Z,10.70
2018-09-26T00:37:37.801Z,10.70
2018-09-26T00:40:07.218Z,10.70
2018-09-26T00:42:35.211Z,10.70
2018-09-26T00:45:03.208Z,10.70
2018-09-26T00:47:31.271Z,10.70
2018-09-26T00:49:59.198Z,10.80
2018-09-26T00:52:27.136Z,10.80
2018-09-26T00:54:55.212Z,10.80
2018-09-26T00:57:23.215Z,10.80
2018-09-26T00:59:51.171Z,10.80
2018-09-26T01:02:19.130Z,10.90
2018-09-26T01:04:47.106Z,10.90
2018-09-26T01:07:15.134Z,10.90
2018-09-26T01:09:43.146Z,10.90
2018-09-26T01:12:11.090Z,10.90
2018-09-26T01:14:39.013Z,11.00
2018-09-26T01:17:07.086Z,11.10
2018-09-26T01:19:35.132Z,11.10
2018-09-26T01:22:03.155Z,11.10
2018-09-26T01:24:31.294Z,11.10
2018-09-26T01:26:59.308Z,11.20
2018-09-26T01:29:27.498Z,11.20
2018-09-26T01:31:55.806Z,11.20
2018-09-26T01:34:23.788Z,11.20
2018-09-26T01:36:51.809Z,11.20
2018-09-26T01:39:19.761Z,11.20
2018-09-26T01:41:47.766Z,11.20
2018-09-26T01:44:15.746Z,11.30
2018-09-26T01:46:43.777Z,11.30
2018-09-26T01:49:11.788Z,11.30
2018-09-26T01:51:39.977Z,11.40
2018-09-26T01:54:08.141Z,11.40
2018-09-26T01:56:36.121Z,11.40
2018-09-26T01:59:04.149Z,11.40
2018-09-26T02:01:32.278Z,11.50
2018-09-26T02:04:00.303Z,11.50
2018-09-26T02:06:28.342Z,11.50
2018-09-26T02:08:56.290Z,11.50
2018-09-26T02:11:24.261Z,11.50
2018-09-26T02:13:52.234Z,11.50
2018-09-26T02:16:20.299Z,11.50
2018-09-26T02:18:48.354Z,11.50
2018-09-26T02:21:16.361Z,11.50
2018-09-26T02:23:44.503Z,11.50
2018-09-26T02:26:12.429Z,11.50
2018-09-26T02:28:40.349Z,11.50
2018-09-26T02:31:08.603Z,11.50
2018-09-26T02:33:36.687Z,11.50
2018-09-26T02:36:04.619Z,11.50
2018-09-26T02:38:32.503Z,11.50
2018-09-26T02:41:00.424Z,11.50
2018-09-26T02:43:28.477Z,11.50
2018-09-26T02:45:56.460Z,11.60
2018-09-26T02:48:29.850Z,11.50
2018-09-26T02:50:57.818Z,11.50
2018-09-26T02:53:25.787Z,11.50
2018-09-26T02:55:53.770Z,11.50
2018-09-26T02:58:21.774Z,11.60
2018-09-26T03:00:49.800Z,11.50
2018-09-26T03:03:17.753Z,11.60
2018-09-26T03:05:45.810Z,11.60
2018-09-26T03:08:13.726Z,11.50
2018-09-26T03:10:41.690Z,11.50
2018-09-26T03:13:09.690Z,11.50
2018-09-26T03:15:37.894Z,11.50
2018-09-26T03:18:05.850Z,11.40
2018-09-26T03:20:33.947Z,11.40
2018-09-26T03:23:02.335Z,11.30
2018-09-26T03:25:30.384Z,11.20
2018-09-26T03:27:58.319Z,11.20
2018-09-26T03:30:26.273Z,11.10
2018-09-26T03:32:54.609Z,11.10
2018-09-26T03:35:22.629Z,10.90
2018-09-26T03:37:50.522Z,10.80
2018-09-26T03:40:18.407Z,10.70
2018-09-26T03:42:46.400Z,10.70
2018-09-26T03:45:14.288Z,10.70
2018-09-26T03:47:42.211Z,10.60
2018-09-26T03:50:10.362Z,10.50
2018-09-26T03:52:38.303Z,10.50
2018-09-26T03:55:06.414Z,10.50
2018-09-26T03:57:34.382Z,10.40
2018-09-26T04:00:02.414Z,10.40
2018-09-26T04:02:30.418Z,10.40
2018-09-26T04:04:58.403Z,10.40
2018-09-26T04:07:26.473Z,10.40
2018-09-26T04:09:54.587Z,10.40
2018-09-26T04:12:22.572Z,10.40
2018-09-26T04:14:50.434Z,10.30
2018-09-26T04:17:18.426Z,10.40
2018-09-26T04:19:46.497Z,10.40
2018-09-26T04:22:14.512Z,10.40
2018-09-26T04:24:42.520Z,10.40
2018-09-26T04:27:10.467Z,10.30
2018-09-26T04:29:38.451Z,10.30
2018-09-26T04:32:06.497Z,10.30
2018-09-26T04:34:34.423Z,10.30
2018-09-26T04:37:02.459Z,10.20
2018-09-26T04:39:30.402Z,10.20
2018-09-26T04:41:58.470Z,10.10
2018-09-26T04:44:26.446Z,10.10
2018-09-26T04:46:54.488Z,10.00
2018-09-26T04:49:22.547Z,9.90
2018-09-26T04:51:50.606Z,9.90
2018-09-26T04:54:18.563Z,9.80
2018-09-26T04:56:46.564Z,9.80
2018-09-26T04:59:14.570Z,9.80
2018-09-26T05:01:42.541Z,9.70
2018-09-26T05:04:10.525Z,9.60
2018-09-26T05:06:38.491Z,9.60
2018-09-26T05:09:09.008Z,9.60
2018-09-26T05:11:37.118Z,9.60
2018-09-26T05:14:05.825Z,9.50
2018-09-26T05:16:34.100Z,9.50
2018-09-26T05:19:02.140Z,9.50
2018-09-26T05:21:30.221Z,9.50
2018-09-26T05:23:58.517Z,9.50
2018-09-26T05:26:26.575Z,9.60
2018-09-26T05:28:54.548Z,9.60
2018-09-26T05:31:22.750Z,9.60
2018-09-26T05:33:50.830Z,9.50
2018-09-26T05:36:18.949Z,9.50
2018-09-26T05:38:46.903Z,9.50
2018-09-26T05:41:14.862Z,9.50
2018-09-26T05:43:43.115Z,9.50
2018-09-26T05:46:11.240Z,9.50
2018-09-26T05:48:39.291Z,9.50
2018-09-26T05:51:07.318Z,9.50
2018-09-26T05:53:35.441Z,9.50
2018-09-26T05:56:03.612Z,9.60
2018-09-26T05:58:31.691Z,9.50
2018-09-26T06:00:59.790Z,9.50
2018-09-26T06:03:27.900Z,9.50
2018-09-26T06:05:55.823Z,9.50
2018-09-26T06:08:23.883Z,9.50
2018-09-26T06:10:52.042Z,9.60
2018-09-26T06:13:20.139Z,9.60
2018-09-26T06:15:48.151Z,9.50
2018-09-26T06:18:16.166Z,9.50
2018-09-26T06:20:44.111Z,9.60
2018-09-26T06:23:12.102Z,9.60
2018-09-26T06:25:39.962Z,9.60
2018-09-26T06:28:08.165Z,9.60
2018-09-26T06:30:36.099Z,9.60
2018-09-26T06:33:04.149Z,9.60
2018-09-26T06:35:32.143Z,9.60
2018-09-26T06:38:00.123Z,9.60
2018-09-26T06:40:28.150Z,9.50
2018-09-26T06:42:56.260Z,9.50
2018-09-26T06:45:24.250Z,9.60
2018-09-26T06:47:52.324Z,9.60
2018-09-26T06:50:20.320Z,9.60
2018-09-26T06:52:48.299Z,9.60
2018-09-26T06:55:16.472Z,9.60
2018-09-26T06:57:44.527Z,9.60
2018-09-26T07:00:12.705Z,9.70
2018-09-26T07:02:40.760Z,9.60
2018-09-26T07:05:08.815Z,9.60
2018-09-26T07:07:36.763Z,9.60
2018-09-26T07:10:04.927Z,9.60
2018-09-26T07:12:32.928Z,9.60
2018-09-26T07:15:01.239Z,9.60
2018-09-26T07:17:29.256Z,9.60
2018-09-26T07:19:57.161Z,9.60
2018-09-26T07:22:25.253Z,9.60
2018-09-26T07:24:53.224Z,9.60
2018-09-26T07:27:21.299Z,9.70
2018-09-26T07:29:49.252Z,9.70
2018-09-26T07:32:17.263Z,9.70
2018-09-26T07:34:45.226Z,9.80
2018-09-26T07:37:13.306Z,9.80
2018-09-26T07:39:41.340Z,9.80
2018-09-26T07:42:09.449Z,9.80
2018-09-26T07:44:37.499Z,9.80
2018-09-26T07:47:05.606Z,9.90
2018-09-26T07:49:33.690Z,9.90
2018-09-26T07:52:01.635Z,10.00
2018-09-26T07:54:29.673Z,10.00
2018-09-26T07:56:57.718Z,10.00
2018-09-26T07:59:25.724Z,10.10
2018-09-26T08:01:53.721Z,10.10
2018-09-26T08:04:21.853Z,10.10
2018-09-26T08:06:49.842Z,10.20
2018-09-26T08:09:17.885Z,10.30
2018-09-26T08:11:46.047Z,10.30
2018-09-26T08:14:13.973Z,10.40
2018-09-26T08:16:41.989Z,10.40
2018-09-26T08:19:10.144Z,10.50
2018-09-26T08:21:38.056Z,10.60
2018-09-26T08:24:06.327Z,10.60
2018-09-26T08:26:34.300Z,10.70
2018-09-26T08:29:02.681Z,10.70
2018-09-26T08:31:30.844Z,10.80
2018-09-26T08:33:58.703Z,10.90
2018-09-26T08:36:26.789Z,10.90
2018-09-26T08:38:54.827Z,10.90
2018-09-26T08:41:22.774Z,10.90
2018-09-26T08:43:50.716Z,11.00
2018-09-26T08:46:18.820Z,11.10
2018-09-26T08:48:46.802Z,11.10
2018-09-26T08:51:14.728Z,11.10
2018-09-26T08:53:42.852Z,11.10
2018-09-26T08:56:10.906Z,11.20
2018-09-26T08:58:38.946Z,11.20
2018-09-26T09:02:12.987Z,11.20
2018-09-26T09:04:40.989Z,11.30
2018-09-26T09:07:09.104Z,11.40
2018-09-26T09:09:37.094Z,11.40
2018-09-26T09:12:05.276Z,11.50
2018-09-26T09:14:33.540Z,11.50
2018-09-26T09:17:01.581Z,11.60
2018-09-26T09:19:29.639Z,11.60
2018-09-26T09:21:57.722Z,11.60
2018-09-26T09:24:25.770Z,11.70
2018-09-26T09:26:53.919Z,11.70
2018-09-26T09:29:22.112Z,11.80
2018-09-26T09:31:50.360Z,11.80
2018-09-26T09:34:18.404Z,11.90
2018-09-26T09:36:46.520Z,11.90
2018-09-26T09:39:14.668Z,11.90
2018-09-26T09:41:42.702Z,12.00
2018-09-26T09:44:10.789Z,12.00
2018-09-26T09:46:38.754Z,12.10
2018-09-26T09:49:07.142Z,12.20
2018-09-26T09:51:35.151Z,12.20
2018-09-26T09:54:03.137Z,12.30
2018-09-26T09:56:31.180Z,12.30
2018-09-26T09:58:59.206Z,12.40
2018-09-26T10:01:28.614Z,12.40
2018-09-26T10:03:58.074Z,12.40
2018-09-26T10:06:26.111Z,12.50
2018-09-26T10:08:54.219Z,12.50
2018-09-26T10:11:22.160Z,12.60
2018-09-26T10:13:50.143Z,12.70
2018-09-26T10:16:18.129Z,12.70
2018-09-26T10:18:46.246Z,12.80
2018-09-26T10:21:14.400Z,12.80
2018-09-26T10:23:42.372Z,12.90
2018-09-26T10:26:10.921Z,12.90
2018-09-26T10:28:38.959Z,12.90
2018-09-26T10:31:06.930Z,12.90
2018-09-26T10:33:34.956Z,13.00
2018-09-26T10:36:02.895Z,13.00
2018-09-26T10:38:30.942Z,13.10
2018-09-26T10:40:59.024Z,13.10
2018-09-26T10:43:27.109Z,13.10
2018-09-26T10:45:55.038Z,13.20
2018-09-26T10:48:23.286Z,13.20
2018-09-26T10:50:51.326Z,13.20
2018-09-26T10:53:19.504Z,13.30
2018-09-26T10:55:47.480Z,13.30
2018-09-26T10:58:15.499Z,13.30
2018-09-26T11:00:43.561Z,13.30
2018-09-26T11:03:11.491Z,13.30
2018-09-26T11:05:39.720Z,13.40
2018-09-26T11:08:07.819Z,13.40
2018-09-26T11:10:35.770Z,13.50
2018-09-26T11:13:03.678Z,13.50
2018-09-26T11:15:31.790Z,13.50
2018-09-26T11:17:59.823Z,13.60
2018-09-26T11:20:28.266Z,13.60
2018-09-26T11:22:56.377Z,13.60
2018-09-26T11:25:24.351Z,13.60
2018-09-26T11:27:52.475Z,13.60
2018-09-26T11:30:20.563Z,13.60
2018-09-26T11:32:48.543Z,13.70
2018-09-26T11:35:16.609Z,13.70
2018-09-26T11:37:44.655Z,13.70
2018-09-26T11:40:12.705Z,13.70
2018-09-26T11:42:40.786Z,13.70
2018-09-26T11:45:08.771Z,13.70
2018-09-26T11:47:36.823Z,13.70
2018-09-26T11:50:04.998Z,13.70
2018-09-26T11:52:33.129Z,13.70
2018-09-26T11:55:01.035Z,13.80
2018-09-26T11:57:29.052Z,13.80
2018-09-26T11:59:56.958Z,13.80
2018-09-26T12:02:25.005Z,13.90
2018-09-26T12:04:52.926Z,13.90
2018-09-26T12:07:20.984Z,13.90
2018-09-26T12:09:48.898Z,13.90
2018-09-26T12:12:16.947Z,13.90
2018-09-26T12:14:45.034Z,13.90
2018-09-26T12:17:12.951Z,14.00
2018-09-26T12:19:41.111Z,14.00
2018-09-26T12:22:09.223Z,14.00
2018-09-26T12:24:37.176Z,14.10
2018-09-26T12:27:05.146Z,14.10
2018-09-26T12:29:33.242Z,14.20
2018-09-26T12:32:01.747Z,14.20
2018-09-26T12:34:29.833Z,14.20
2018-09-26T12:36:57.966Z,14.30
2018-09-26T12:39:26.124Z,14.40
2018-09-26T12:41:54.110Z,14.40
2018-09-26T12:44:22.130Z,14.40
2018-09-26T12:46:50.201Z,14.50
2018-09-26T12:49:18.315Z,14.60
2018-09-26T12:51:46.347Z,14.70
2018-09-26T12:54:14.249Z,14.80
2018-09-26T12:56:42.315Z,14.90
2018-09-26T12:59:10.357Z,14.90
2018-09-26T13:01:38.490Z,15.00
2018-09-26T13:04:06.972Z,15.00
2018-09-26T13:06:35.041Z,15.00
2018-09-26T13:09:03.369Z,15.10
2018-09-26T13:11:31.499Z,15.10
2018-09-26T13:13:59.570Z,15.20
2018-09-26T13:16:27.824Z,15.20
2018-09-26T13:18:55.952Z,15.30
2018-09-26T13:21:24.126Z,15.30
2018-09-26T13:23:52.396Z,15.40
2018-09-26T13:26:20.551Z,15.40
2018-09-26T13:28:48.516Z,15.50
2018-09-26T13:31:16.591Z,15.60
2018-09-26T13:33:44.576Z,15.60
2018-09-26T13:36:12.789Z,15.60
2018-09-26T13:38:40.776Z,15.60
2018-09-26T13:41:08.835Z,15.60
2018-09-26T13:43:36.786Z,15.60
2018-09-26T13:46:04.785Z,15.60
2018-09-26T13:48:32.842Z,15.70
2018-09-26T13:51:01.000Z,15.70
2018-09-26T13:53:29.274Z,15.70
2018-09-26T13:55:57.253Z,15.70
2018-09-26T13:58:25.288Z,15.70
2018-09-26T14:00:53.232Z,15.70
2018-09-26T14:03:21.410Z,15.60
2018-09-26T14:05:49.450Z,15.60
2018-09-26T14:08:17.563Z,15.60
2018-09-26T14:10:45.294Z,15.70
2018-09-26T14:13:13.360Z,15.70
2018-09-26T14:15:41.527Z,15.70
2018-09-26T14:18:09.639Z,15.80
2018-09-26T14:20:38.102Z,15.70
2018-09-26T14:23:06.569Z,15.80
2018-09-26T14:25:34.656Z,15.80
2018-09-26T14:28:02.684Z,15.80
2018-09-26T14:30:30.916Z,15.80
2018-09-26T14:32:58.970Z,15.80
2018-09-26T14:35:27.133Z,15.80
2018-09-26T14:37:55.164Z,15.80
2018-09-26T14:40:23.108Z,15.80
2018-09-26T14:42:51.007Z,15.80
2018-09-26T14:45:19.101Z,15.80
2018-09-26T14:47:47.394Z,15.80
2018-09-26T14:50:15.502Z,15.80
2018-09-26T14:52:43.660Z,15.80
2018-09-26T14:55:11.786Z,15.70
2018-09-26T14:57:39.875Z,15.70
2018-09-26T15:00:08.703Z,15.70
2018-09-26T15:02:36.833Z,15.70
2018-09-26T15:05:04.837Z,15.60
2018-09-26T15:07:33.032Z,15.60
2018-09-26T15:10:01.091Z,15.60
2018-09-26T15:12:29.078Z,15.60
2018-09-26T15:14:57.263Z,15.60
2018-09-26T15:17:25.306Z,15.60
2018-09-26T15:19:53.410Z,15.60
2018-09-26T15:22:21.374Z,15.60
2018-09-26T15:24:49.406Z,15.60
2018-09-26T15:27:17.312Z,15.60
2018-09-26T15:29:45.347Z,15.60
2018-09-26T15:32:13.480Z,15.60
2018-09-26T15:34:41.584Z,15.60
2018-09-26T15:37:09.997Z,15.50
2018-09-26T15:39:38.021Z,15.50
2018-09-26T15:42:06.331Z,15.50
2018-09-26T15:44:34.353Z,15.50
2018-09-26T15:47:02.411Z,15.50
2018-09-26T15:49:30.406Z,15.40
2018-09-26T15:51:58.548Z,15.10
2018-09-26T15:54:26.624Z,14.90
2018-09-26T15:56:54.468Z,14.60
2018-09-26T15:59:22.489Z,14.30
2018-09-26T16:01:51.574Z,14.10
2018-09-26T16:04:19.802Z,14.00
2018-09-26T16:06:48.013Z,13.80
2018-09-26T16:09:16.187Z,13.70
2018-09-26T16:11:44.620Z,13.60
2018-09-26T16:14:12.615Z,13.40
2018-09-26T16:16:40.971Z,13.30
2018-09-26T16:19:09.125Z,13.10
2018-09-26T16:21:37.163Z,13.10
2018-09-26T16:24:05.225Z,12.90
2018-09-26T16:26:33.247Z,12.80
2018-09-26T16:29:01.875Z,12.70
2018-09-26T16:31:30.292Z,12.60
2018-09-26T16:33:58.226Z,12.60
2018-09-26T16:36:26.577Z,12.50
2018-09-26T16:38:54.587Z,12.50
2018-09-26T16:41:22.547Z,12.40
2018-09-26T16:43:50.539Z,12.40
2018-09-26T16:46:18.618Z,12.30
2018-09-26T16:48:47.036Z,12.30
2018-09-26T16:51:15.099Z,12.30
2018-09-26T16:53:43.194Z,12.30
2018-09-26T16:56:11.300Z,12.30
2018-09-26T16:58:39.326Z,12.20
2018-09-26T17:01:07.415Z,12.20
2018-09-26T17:03:35.530Z,12.20
2018-09-26T17:06:03.799Z,12.20
2018-09-26T17:08:31.878Z,12.20
2018-09-26T17:11:00.068Z,12.20
2018-09-26T17:13:28.161Z,12.10
2018-09-26T17:15:56.314Z,12.10
2018-09-26T17:18:24.375Z,12.00
2018-09-26T17:20:52.429Z,12.00
2018-09-26T17:23:20.520Z,11.90
2018-09-26T17:25:48.490Z,11.90
2018-09-26T17:28:16.461Z,11.90
2018-09-26T17:30:44.426Z,11.90
2018-09-26T17:33:12.503Z,11.80
2018-09-26T17:35:41.136Z,11.80
2018-09-26T17:38:09.129Z,11.80
2018-09-26T17:40:37.159Z,11.80
2018-09-26T17:43:05.201Z,11.70
2018-09-26T17:45:33.223Z,11.70
2018-09-26T17:48:01.305Z,11.70
2018-09-26T17:50:29.378Z,11.70
2018-09-26T17:52:57.322Z,11.70
2018-09-26T17:55:25.326Z,11.70
2018-09-26T17:57:53.413Z,11.70
2018-09-26T18:00:21.715Z,11.60
2018-09-26T18:02:49.709Z,11.60
2018-09-26T18:05:18.057Z,11.60
2018-09-26T18:07:46.070Z,11.50
2018-09-26T18:10:14.079Z,11.40
2018-09-26T18:12:42.135Z,11.40
2018-09-26T18:15:10.142Z,11.40
2018-09-26T18:17:38.226Z,11.40
2018-09-26T18:20:06.383Z,11.30
2018-09-26T18:22:34.370Z,11.30
2018-09-26T18:25:02.306Z,11.30
2018-09-26T18:27:30.269Z,11.30
2018-09-26T18:29:58.280Z,11.20
2018-09-26T18:32:26.284Z,11.20
2018-09-26T18:34:54.291Z,11.20
2018-09-26T18:37:22.258Z,11.20
2018-09-26T18:39:50.117Z,11.20
2018-09-26T18:42:18.125Z,11.10
2018-09-26T18:44:46.008Z,11.10
2018-09-26T18:47:13.919Z,11.10
2018-09-26T18:49:41.838Z,11.10
2018-09-26T18:52:09.992Z,11.10
2018-09-26T18:54:37.935Z,11.10
2018-09-26T18:57:05.960Z,11.10
2018-09-26T18:59:34.124Z,11.10
2018-09-26T19:02:02.380Z,11.20
2018-09-26T19:04:30.289Z,11.20
2018-09-26T19:06:58.266Z,11.20
2018-09-26T19:09:26.308Z,11.20
2018-09-26T19:11:54.302Z,11.10
2018-09-26T19:14:22.224Z,11.10
2018-09-26T19:16:50.284Z,11.10
2018-09-26T19:19:18.464Z,11.10
2018-09-26T19:21:46.449Z,11.00
2018-09-26T19:24:14.533Z,11.00
2018-09-26T19:26:42.610Z,11.00
2018-09-26T19:29:10.549Z,11.00
2018-09-26T19:31:38.537Z,10.90
2018-09-26T19:34:06.728Z,10.90
2018-09-26T19:36:34.786Z,10.90
2018-09-26T19:39:04.004Z,10.90
2018-09-26T19:41:31.999Z,10.90
2018-09-26T19:44:00.122Z,10.90
2018-09-26T19:46:28.186Z,11.00
2018-09-26T19:48:56.228Z,11.00
2018-09-26T19:51:24.231Z,11.00
2018-09-26T19:53:52.270Z,11.00
2018-09-26T19:56:20.315Z,11.00
2018-09-26T19:58:48.299Z,11.00
2018-09-26T20:01:16.408Z,11.00
2018-09-26T20:03:44.390Z,11.00
2018-09-26T20:06:12.588Z,11.00
2018-09-26T20:08:40.635Z,11.10
2018-09-26T20:11:08.858Z,11.00
2018-09-26T20:13:36.843Z,11.10
2018-09-26T20:16:04.966Z,11.10
2018-09-26T20:18:33.172Z,11.10
2018-09-26T20:21:01.181Z,11.20
2018-09-26T20:23:29.377Z,11.20
2018-09-26T20:25:57.305Z,11.20
2018-09-26T20:28:25.243Z,11.20
2018-09-26T20:30:53.294Z,11.20
2018-09-26T20:33:21.272Z,11.20
2018-09-26T20:35:49.438Z,11.20
2018-09-26T20:38:17.613Z,11.20
2018-09-26T20:40:45.920Z,11.20
2018-09-26T20:43:14.134Z,11.20
2018-09-26T20:45:42.171Z,11.20
2018-09-26T20:48:10.192Z,11.20
2018-09-26T20:50:38.368Z,11.20
2018-09-26T20:53:06.612Z,11.20
2018-09-26T20:55:34.677Z,11.20
2018-09-26T20:58:02.688Z,11.20
2018-09-26T21:00:31.137Z,11.20
2018-09-26T21:02:59.023Z,11.20
2018-09-26T21:05:26.951Z,11.20
2018-09-26T21:07:54.962Z,11.20
2018-09-26T21:10:23.065Z,11.20
2018-09-26T21:12:52.012Z,11.30
2018-09-26T21:15:20.401Z,11.30
2018-09-26T21:17:48.385Z,11.30
2018-09-26T21:20:16.371Z,11.30
2018-09-26T21:22:44.418Z,11.30
2018-09-26T21:25:12.480Z,11.40
2018-09-26T21:27:40.609Z,11.30
2018-09-26T21:30:08.683Z,11.30
2018-09-26T21:32:36.712Z,11.30
2018-09-26T21:35:04.763Z,11.30
2018-09-26T21:37:32.707Z,11.30
2018-09-26T21:40:00.830Z,11.40
2018-09-26T21:42:28.819Z,11.40
2018-09-26T21:44:56.899Z,11.40
2018-09-26T21:47:24.937Z,11.40
2018-09-26T21:49:53.027Z,11.50
2018-09-26T21:52:21.107Z,11.50
2018-09-26T21:54:49.053Z,11.40
2018-09-26T21:57:17.056Z,11.40
2018-09-26T21:59:45.051Z,11.40
2018-09-26T22:02:13.102Z,11.30
2018-09-26T22:04:41.232Z,11.20
2018-09-26T22:07:09.262Z,11.20
2018-09-26T22:09:37.407Z,11.10
2018-09-26T22:12:05.377Z,11.10
2018-09-26T22:14:33.375Z,11.10
2018-09-26T22:17:01.642Z,11.10
2018-09-26T22:19:29.694Z,11.00
2018-09-26T22:21:57.706Z,11.10
2018-09-26T22:24:25.704Z,11.00
2018-09-26T22:26:53.726Z,11.00
2018-09-26T22:29:21.686Z,11.00
2018-09-26T22:31:49.693Z,11.00
2018-09-26T22:34:17.586Z,11.00
2018-09-26T22:36:45.550Z,11.10
2018-09-26T22:39:13.816Z,11.10
2018-09-26T22:41:41.759Z,11.10
2018-09-26T22:44:09.845Z,11.10
2018-09-26T22:46:38.501Z,11.10
2018-09-26T22:49:06.508Z,11.10
2018-09-26T22:51:34.541Z,11.20
2018-09-26T22:54:02.522Z,11.20
2018-09-26T22:56:30.493Z,11.20
2018-09-26T23:01:32.957Z,11.20
2018-09-26T23:04:00.913Z,11.20
2018-09-26T23:06:28.916Z,11.20
2018-09-26T23:08:56.871Z,11.20
2018-09-26T23:11:24.761Z,11.20
2018-09-26T23:13:52.912Z,11.20
2018-09-26T23:16:20.892Z,11.20
2018-09-26T23:18:48.965Z,11.20
2018-09-26T23:21:16.854Z,11.20
2018-09-26T23:23:44.902Z,11.20
2018-09-26T23:26:12.873Z,11.20
2018-09-26T23:28:40.797Z,11.20
2018-09-26T23:31:08.748Z,11.10
2018-09-26T23:33:36.698Z,11.10
2018-09-26T23:36:04.709Z,11.10
2018-09-26T23:38:32.732Z,11.00
2018-09-26T23:41:01.002Z,10.90
2018-09-26T23:43:29.020Z,10.90
2018-09-26T23:45:57.018Z,10.70
2018-09-26T23:48:24.948Z,10.70
2018-09-26T23:50:52.995Z,10.60
2018-09-26T23:53:21.025Z,10.60
2018-09-26T23:55:48.975Z,10.60
2018-09-26T23:58:17.010Z,10.60
